MET: Información y Pronóstico Aeronáutico

///////////////////////////////////////////////////////////////////////////////////////////////////////////////////////////////////////////////////////////////////////////////////////////////////////////////////////////////////////////////

Member for

3 años 4 meses
Enviado por meteorologia el Jue, 10/06/2021 - 09:33
30/11

30 DE NOVIEMBRE 2021

INFORMACION METEOROLOGICA AERONAUTICA (METAR) 18:00 UTC

Aeropuerto AEROPARQUE J. NEWBERY

30 - 18:00  METAR SABE 301800Z VRB03KT CAVOK 26/08 Q1010 NOSIG RMK PP000 =

Aeropuerto BAHIA BLANCA

30 - 18:00  METAR SAZB 301800Z 11009KT 070V180 CAVOK 26/09 Q1013 =

Aeropuerto BARILOCHE

30 - 18:00  METAR SAZS 301800Z 29019KT 9999 FEW035 23/M03 Q1011 RMK PP/// =

Aeropuerto CATAMARCA

30 - 18:00  METAR SANC 301800Z 02025KT 9999 FEW070TCU 34/14 Q1004 =

Aeropuerto CHAPELCO

30 - 18:00  METAR SAZY 301800Z 25017KT 9999 FEW050 26/M00 Q1010 =

Aeropuerto COMODORO RIVADAVIA

30 - 18:00  METAR SAVC 301800Z 06017KT CAVOK 19/05 Q1006 RMK PP000 =

Aeropuerto CORDOBA

30 - 18:00  METAR SACO 301800Z 02013KT 9999 FEW045TCU 29/06 Q1009 NOSIG RMK PP000 =

Aeropuerto CORRIENTES

30 - 18:00  METAR SARC 301800Z 14008KT CAVOK 29/13 Q1009 =

Aeropuerto EL CALAFATE

30 - 18:00  METAR SAWC 301800Z 29020KT CAVOK 20/04 Q1000 =

Aeropuerto EL PALOMAR

30 - 18:00  METAR SADP 301800Z 22004KT CAVOK 25/08 Q1011 RMK PP/// =

Aeropuerto ESQUEL

30 - 18:00  METAR SAVE 301800Z 27013KT 220V290 9999 FEW050 23/M02 Q1010 =

Aeropuerto EZEIZA

30 - 18:00  METAR SAEZ 301800Z 20005KT CAVOK 24/10 Q1010 NOSIG RMK PP000 =

Aeropuerto FORMOSA

30 - 18:00  METAR SARF 301800Z 14007KT CAVOK 30/13 Q1008 =

Aeropuerto IGUAZU/CATARATAS

30 - 18:00  METAR SARI 301800Z 23008KT 9999 SCT030 29/15 Q1008 =

Aeropuerto JUJUY

30 - 18:00  METAR SASJ 301800Z 07011KT 340V100 9999 FEW060 33/07 Q1009 RMK PP000 =

Aeropuerto LA RIOJA

30 - 18:00  METAR SANL 301800Z 05006KT CAVOK 35/19 Q1005 =

Aeropuerto MALARGUE

30 - 18:00  METAR SAMM 301800Z 36005KT 9999 BKN035TCU SCT100 25/16 Q1013 =

Aeropuerto MAR DEL PLATA

30 - 17:00  METAR SAZM 301700Z 14012KT CAVOK 18/09 Q1013 RMK PP/// =

Aeropuerto MENDOZA

30 - 18:00  METAR SAME 301800Z 14006KT 9999 SCT045 FEW050 30/12 Q1006 =

Aeropuerto MORON

30 - 18:00  METAR SADM 301800Z 27007KT CAVOK 25/11 Q1011 =

Aeropuerto NEUQUEN

30 - 17:00  METAR SAZN 301700Z 32002KT 9999 SCT045 SCT100 30/09 Q1009 =

Aeropuerto PARANA

30 - 18:00  METAR SAAP 301800Z 32006KT 9999 FEW030 29/12 Q1010 =

Aeropuerto POSADAS

30 - 18:00  METAR SARP 301800Z 20009KT CAVOK 29/12 Q1009 =

Aeropuerto PUERTO MADRYN

30 - 18:00  METAR SAVY 301800Z 34010KT 9999 FEW020 29/07 Q1008 =

Aeropuerto RECONQUISTA

30 - 18:00  METAR SATR 301800Z 16006KT 9999 FEW025 29/15 Q1009 =

Aeropuerto RESISTENCIA

30 - 17:00  METAR SARE 301700Z 14009KT CAVOK 29/15 Q1010 RMK PP/// =

Aeropuerto RIO CUARTO

30 - 18:00  METAR SAOC 301800Z 02022G37KT 9999 FEW030 FEW045CB 32/13 Q1007 RMK CB OBS TO S =

Aeropuerto RIO GALLEGOS

30 - 18:00  METAR SAWG 301800Z 09013KT 9999 FEW030 19/03 Q0999 =

Aeropuerto RIO GRANDE

30 - 18:00  METAR SAWE 301800Z 27018KT 9999 SCT020 19/05 Q0999 =

Aeropuerto ROSARIO

30 - 18:00  METAR SAAR 301800Z VRB02KT CAVOK 29/12 Q1009 PP000 =

Aeropuerto SALTA

30 - 18:00  METAR SASA 301800Z 05015KT 9999 FEW040 SCT050 29/07 Q1011 =

Aeropuerto SAN FERNANDO

30 - 18:00  METAR SADF 301800Z 17006KT 120V240 CAVOK 26/08 Q1010 RMK PP000 =

Aeropuerto SAN JUAN

30 - 18:00  METAR SANU 301800Z 23004KT 9999 FEW040CB FEW100 33/05 Q1005 =

Aeropuerto SAN LUIS

30 - 18:00  METAR SAOU 301800Z 34010G21KT 9999 SCT040 FEW045CB 32/08 Q1007 =

Aeropuerto SAN RAFAEL

30 - 18:00  METAR SAMR 301800Z 11013KT 9999 SCT040 FEW045CB 26/07 Q1010 =

Aeropuerto SANTA ROSA

30 - 18:00  METAR SAZR 301800Z 05008KT CAVOK 27/07 Q1012 =

Aeropuerto SANTIAGO DEL ESTERO

30 - 18:00  METAR SANE 301800Z 05009KT 9999 FEW025 35/15 Q1005 =

Aeropuerto SAUCE VIEJO

30 - 18:00  METAR SAAV 301800Z 18006KT 9999 FEW035 30/14 Q1009 RMK PP/// =

Aeropuerto TANDIL

30 - 18:00  METAR SAZT 301800Z 14011KT CAVOK 24/05 Q1012 =

Aeropuerto TERMAS DE RIO HONDO

30 - 18:00  METAR SANR 301800Z 05015KT 9999 BKN045 34/13 Q1005 =

Aeropuerto TRELEW

30 - 18:00  METAR SAVT 301800Z 25015KT 240V360 9999 FEW040 30/M01 Q1008 =

Aeropuerto TUCUMAN

30 - 18:00  METAR SANT 301800Z 09014KT 9999 SCT060 33/12 Q1006 =

Aeropuerto USHUAIA

30 - 18:00  METAR SAWH 301800Z 18004KT 9999 SCT040 14/03 Q0996 =

Aeropuerto VIEDMA

30 - 18:00  METAR SAVV 301800Z 05008KT 330V110 CAVOK 27/04 Q1012 =

Aeropuerto VILLA REYNOLDS

30 - 18:00  METAR SAOR 301800Z 14010KT 9999 SCT030 FEW040CB 26/10 Q1009 =

 PRONOSTICO DE AERODROMO (TAF) 17:00 UTC

Estación AEROPARQUE J. NEWBERY

30 - 17:00  TAF SABE 301700Z 3018/0118 VRB05KT CAVOK TX25/3019Z TN18/0110Z BECMG 3018/3020 08010KT TEMPO 3022/0102 09015KT BECMG 0101/0104 SCT015 BECMG 0110/0113 CAVOK =

Estación BAHIA BLANCA

30 - 17:00  TAF SAZB 301700Z 3018/0118 12010KT CAVOK TX30/0118Z TN14/0109Z BECMG 3019/3022 09010G20KT BECMG 0103/0106 05015KT BECMG 0109/0112 36010G20KT =

Estación BARILOCHE

30 - 17:00  TAF SAZS 301700Z 3018/0118 30015KT 9999 FEW030 SCT100 TX25/3019Z TN03/0110Z TEMPO 3018/3021 30015G25KT BECMG 0100/0103 30010KT CAVOK BECMG 0111/0113 30015G25KT CAVOK =

Estación CATAMARCA

30 - 17:00  TAF SANC 301700Z 3018/0118 05030G45KT CAVOK TX33/0118Z TN21/0110Z BECMG 0102/0104 36012KT =

Estación CHAPELCO

30 - 17:00  TAF SAZY 301700Z 3018/0118 25010G20KT 9999 SCT030 FEW050TCU TX26/3019Z TN07/0109Z BECMG 0100/0103 27007KT CAVOK BECMG 0112/0115 27010G30KT 9999 SCT030 BKN050 =

Estación COMODORO RIVADAVIA

30 - 17:00  TAF SAVC 301700Z 3018/0118 07010G20KT CAVOK TX27/0118Z TN14/0110Z BECMG 0100/0105 25010KT BECMG 0105/0108 VRB07KT =

Estación CORDOBA

30 - 17:00  SACO 301700

Estación CORRIENTES

30 - 17:00  TAF SARC 301700Z 3018/0118 14005KT CAVOK TX31/3019Z TN19/0110Z =

Estación EL CALAFATE

30 - 17:00  TAF SAWC 301700Z 3018/0118 28010G20KT CAVOK TX21/3019Z TN08/0110Z BECMG 3019/3022 25010G20KT BECMG 0103/0105 14005KT BECMG 0110/0112 25010G30KT 9999 RA SCT030 SCT080 =

Estación EL PALOMAR

30 - 17:00  TAF SADP 301700Z 3018/0118 20010KT CAVOK TX25/3018Z TN12/0109Z BECMG 3021/0100 07010G20KT BECMG 0106/0109 09005KT 5000 BR NSC BECMG 0109/0112 12010KT 8000 SCT010 BECMG 0115/0118 02012KT 9999 SCT040 FEW050TCU =

Estación ESQUEL

30 - 17:00  TAF SAVE 301700Z 3018/0118 25010KT CAVOK TX23/3019Z TN06/0110Z BECMG 3020/3024 27010G25KT BECMG 0102/0105 30010KT =

Estación EZEIZA

30 - 17:00  TAF SAEZ 301700Z 3018/0118 20010KT CAVOK TX25/3018Z TN12/0109Z BECMG 3021/0100 07010G20KT BECMG 0106/0109 09005KT 5000 BR NSC BECMG 0109/0112 12010KT 8000 SCT010 BECMG 0115/0118 02012KT 9999 SCT040 FEW050TCU =

Estación FORMOSA

30 - 17:00  TAF SARF 301700Z 3018/0118 18005KT CAVOK TX31/3019Z TN18/0110Z =

Estación IGUAZU/CATARATAS

30 - 17:00  TAF SARI 301700Z 3018/0118 20005KT CAVOK TX30/3019Z TN16/0110Z =

Estación JUJUY

30 - 17:00  TAF SASJ 301700Z 3018/0118 02015KT 9999 SCT035 FEW040CB TX31/0118Z TN17/0109Z BECMG 0102/0104 34002KT CAVOK =

Estación LA RIOJA

30 - 17:00  TAF SANL 301700Z 3018/0118 18010KT CAVOK TX34/0118Z TN20/0109Z BECMG 0100/0102 05010KT 9999 SCT030 FEW035TCU =

Estación MAR DEL PLATA

30 - 17:00  TAF SAZM 301700Z 3018/0118 14015KT CAVOK TX19/0117Z TN12/0108Z BECMG 0102/0104 09010KT SCT010 BECMG 0111/0113 05010KT 9999 FEW030 =

Estación MENDOZA

30 - 17:00  TAF SAME 301700Z 3018/0118 18010KT 9999 SCT030 FEW040CB TX34/3020Z TN18/0110Z PROB30 TEMPO 3022/0101 18015KT 5000 TSRA BKN030 FEW040CB BECMG 0104/0106 20005KT CAVOK =

Estación NEUQUEN

30 - 17:00  TAF SAZN 301700Z 3018/0118 25010KT 9999 SCT045 BKN100 TX30/0118Z TN14/0110Z PROB30 TEMPO 3019/0102 VRB10KT 6000 TSRA BKN040 FEW050CB OVC100 BECMG 0103/0105 27010KT CAVOK =

Estación PARANA

30 - 17:00  TAF SAAP 301700Z 3018/0118 VRB05KT CAVOK TX30/3018Z TN16/0109Z BECMG 3021/0100 16010KT BECMG 0103/0106 09012KT BECMG 0115/0118 36007KT =

Estación POSADAS

30 - 17:00  TAF SARP 301700Z 3018/0118 14005KT CAVOK TX30/3019Z TN16/0110Z =

Estación RESISTENCIA

30 - 17:00  TAF SARE 301700Z 3018/0118 14005KT CAVOK TX31/3019Z TN19/0110Z =

Estación RIO CUARTO

30 - 17:00  TAF SAOC 301700Z 3018/0118 02020KT CAVOK TX33/0118Z TN17/0110Z TEMPO 3022/0102 09020KT 5000 TSRA BKN025 FEW040CB BECMG 0103/0105 36010KT 9999 NSW SCT030 =

Estación RIO GALLEGOS

30 - 17:00  TAF SAWG 301700Z 3018/0118 07010G25KT CAVOK TX20/3019Z TN10/0110Z BECMG 0100/0102 VRB07KT TEMPO 0110/0112 21010G20KT 9999 RA SCT040 BKN090 =

Estación RIO GRANDE

30 - 17:00  TAF SAWE 301700Z 3018/0118 30015G30KT 9999 SCT020 TX19/3019Z TN08/0110Z BECMG 3020/3024 34015G30KT 9999 SCT040 SCT090 PROB30 TEMPO 0105/0108 RA =

Estación ROSARIO

30 - 17:00  TAF SAAR 301700Z 3018/0118 VRB03KT CAVOK TX31/3019Z TN15/0110Z BECMG 3018/3020 09010KT =

Estación SALTA

30 - 17:00  TAF SASA 301700Z 3018/0118 05015KT 9999 SCT030 FEW035TCU TX28/0118Z TN15/0109Z BECMG 0103/0105 36005KT CAVOK =

Estación SAN FERNANDO

30 - 17:00  TAF SADF 301700Z 3018/0118 20010KT CAVOK TX25/3018Z TN16/0109Z BECMG 3021/3023 09015KT BECMG 0104/0106 SCT015 BECMG 0112/0114 07010KT 9999 SCT030 =

Estación SAN JUAN

30 - 17:00  TAF SANU 301700Z 3018/0118 16010KT 9999 FEW040CB TX36/3020Z TN17/0110Z BECMG 3022/3023 FEW040 BECMG 0101/0103 18020KT BECMG 0106/0108 20007KT =

Estación SAN LUIS

30 - 17:00  TAF SAOU 301700Z 3018/0118 36015KT 9999 FEW040 FEW045CB TX32/3018Z TN17/0109Z TEMPO 3022/0101 6000 TSRA BKN030 FEW040CB TEMPO 0105/0109 4000 TSRA BKN030 FEW040CB BECMG 0110/0112 36010KT 9999 SCT040 =

Estación SAN RAFAEL

30 - 17:00  TAF SAMR 301700Z 3018/0118 11010KT 9999 SCT030 FEW040CB TX32/3020Z TN16/0110Z TEMPO 3017/3020 18010KT 5000 TSRA BKN030 FEW040CB TEMPO 0101/0104 16015KT 6000 TSRA BKN030 FEW040CB BECMG 0104/0106 25005KT 9999 SCT040 =

Estación SANTA ROSA

30 - 17:00  TAF SAZR 301700Z 3018/0118 07010KT 9999 SCT030 FEW050TCU TX28/3018Z TN16/0109Z BECMG 3021/0100 CAVOK BECMG 0103/0106 05010KT BECMG 0109/0112 36015KT BECMG 0112/0115 36020KT =

Estación SANTIAGO DEL ESTERO

30 - 17:00  TAF SANE 301700Z 3018/0118 02020KT CAVOK TX36/0118Z TN23/0109Z TEMPO 0102/0106 36005KT =

Estación SAUCE VIEJO

30 - 17:00  TAF SAAV 301700Z 3018/0118 VRB05KT CAVOK TX30/3018Z TN16/0109Z BECMG 3021/0100 16010KT BECMG 0103/0106 09012KT BECMG 0115/0118 36007KT =

Estación TERMAS DE RIO HONDO

30 - 17:00  TAF SANR 301700Z 3018/0118 05010KT CAVOK TX35/0118Z TN22/0109Z BECMG 0100/0102 36002KT =

Estación TRELEW

30 - 17:00  TAF SAVT 301700Z 3018/0118 VRB08KT CAVOK TX29/3019Z TN17/3012Z TEMPO 3018/3022 02015G30KT =

Estación TUCUMAN

30 - 17:00  TAF SANT 301700Z 3018/0118 07008KT CAVOK TX33/0118Z TN21/0110Z TEMPO 3019/3023 02015KT =

Estación USHUAIA

30 - 17:00  TAF SAWH 301700Z 3018/0118 12010KT 9999 SCT040 SCT080 TX14/3020Z TN07/0110Z PROB30 TEMPO 3018/3021 32015G30KT BECMG 0110/0112 VRB05KT =

Estación VIEDMA

30 - 17:00  TAF SAVV 301700Z 3018/0118 03010G25KT CAVOK TX30/0118Z TN14/0107Z BECMG 0115/0118 34015G30KT 9999 FEW040CB SCT045 =